createdAt,value
2023-05-14T00:00:06.655Z,226.66
2023-05-14T00:01:06.678Z,225.48
2023-05-14T00:02:06.697Z,227.13
2023-05-14T00:03:06.893Z,227.12
2023-05-14T00:04:06.859Z,226.46
2023-05-14T00:05:07.295Z,225.23
2023-05-14T00:06:06.856Z,223.67
2023-05-14T00:07:06.873Z,225.57
2023-05-14T00:08:06.931Z,224.71
2023-05-14T00:09:08.142Z,224.33
2023-05-14T00:10:06.943Z,225.45
2023-05-14T00:11:06.950Z,224.72
2023-05-14T00:12:07.031Z,225.92
2023-05-14T00:13:07.024Z,226.94
2023-05-14T00:14:07.055Z,225.92
2023-05-14T00:15:07.049Z,227.12
2023-05-14T00:16:07.163Z,225.69
2023-05-14T00:17:07.135Z,226.24
2023-05-14T00:18:07.175Z,227.74
2023-05-14T00:19:07.270Z,228.02
2023-05-14T00:20:07.337Z,228.16
2023-05-14T00:21:07.160Z,228.11
2023-05-14T00:22:07.169Z,222.10
2023-05-14T00:23:07.155Z,224.52
2023-05-14T00:24:07.140Z,224.11
2023-05-14T00:25:07.109Z,222.44
2023-05-14T00:26:07.160Z,226.18
2023-05-14T00:27:07.097Z,221.81
2023-05-14T00:28:07.135Z,223.81
2023-05-14T00:29:07.117Z,225.04
2023-05-14T00:30:07.808Z,222.27
2023-05-14T00:31:07.178Z,221.21
2023-05-14T00:32:07.115Z,218.75
2023-05-14T00:33:07.274Z,218.41
2023-05-14T00:34:07.194Z,217.96
2023-05-14T00:35:07.312Z,218.75
2023-05-14T00:36:07.266Z,216.81
2023-05-14T00:37:07.315Z,220.05
2023-05-14T00:38:07.344Z,216.60
2023-05-14T00:39:07.339Z,217.70
2023-05-14T00:40:07.822Z,219.57
2023-05-14T00:41:07.398Z,215.67
2023-05-14T00:42:07.434Z,215.89
2023-05-14T00:43:07.454Z,211.80
2023-05-14T00:44:07.437Z,211.04
2023-05-14T00:45:07.503Z,211.77
2023-05-14T00:46:07.600Z,213.32
2023-05-14T00:47:07.527Z,214.31
2023-05-14T00:48:07.573Z,213.16
2023-05-14T00:49:07.556Z,212.68
2023-05-14T00:50:08.370Z,209.66
2023-05-14T00:51:07.582Z,210.47
2023-05-14T00:52:07.580Z,207.51
2023-05-14T00:53:07.593Z,209.66
2023-05-14T00:54:07.615Z,208.80
2023-05-14T00:55:07.820Z,208.97
2023-05-14T00:56:07.676Z,208.15
2023-05-14T00:57:07.680Z,205.84
2023-05-14T00:58:07.717Z,204.07
2023-05-14T00:59:07.751Z,203.75
2023-05-14T01:00:07.774Z,205.44
2023-05-14T01:01:07.845Z,207.40
2023-05-14T01:02:07.789Z,202.80
2023-05-14T01:03:07.980Z,202.41
2023-05-14T01:04:07.919Z,200.04
2023-05-14T01:05:07.809Z,204.03
2023-05-14T01:06:07.807Z,203.06
2023-05-14T01:07:07.805Z,202.24
2023-05-14T01:08:08.832Z,202.06
2023-05-14T01:09:07.866Z,199.72
2023-05-14T01:10:07.872Z,200.91
2023-05-14T01:11:08.853Z,200.56
2023-05-14T01:12:07.894Z,201.09
2023-05-14T01:13:07.929Z,200.04
2023-05-14T01:14:07.936Z,200.82
2023-05-14T01:15:08.323Z,200.41
2023-05-14T01:16:07.976Z,198.72
2023-05-14T01:17:08.812Z,204.15
2023-05-14T01:18:08.044Z,199.03
2023-05-14T01:19:08.014Z,202.15
2023-05-14T01:20:08.969Z,202.23
2023-05-14T01:21:07.980Z,199.04
2023-05-14T01:22:08.005Z,202.58
2023-05-14T01:23:07.961Z,199.94
2023-05-14T01:24:07.973Z,200.81
2023-05-14T01:25:07.956Z,200.34
2023-05-14T01:26:07.935Z,197.93
2023-05-14T01:27:07.918Z,197.73
2023-05-14T01:28:07.924Z,198.17
2023-05-14T01:29:07.922Z,197.85
2023-05-14T01:30:08.343Z,195.64
2023-05-14T01:31:07.911Z,195.78
2023-05-14T01:32:08.037Z,197.59
2023-05-14T01:33:07.946Z,200.84
2023-05-14T01:34:07.860Z,198.64
2023-05-14T01:35:07.964Z,204.29
2023-05-14T01:36:07.861Z,203.83
2023-05-14T01:37:07.857Z,205.33
2023-05-14T01:38:07.850Z,207.40
2023-05-14T01:39:07.841Z,205.41
2023-05-14T01:40:08.323Z,205.73
2023-05-14T01:41:07.825Z,205.05
2023-05-14T01:42:07.844Z,208.07
2023-05-14T01:43:07.862Z,206.15
2023-05-14T01:44:07.846Z,208.70
2023-05-14T01:45:07.840Z,205.70
2023-05-14T01:46:07.890Z,203.61
2023-05-14T01:47:07.837Z,201.63
2023-05-14T01:48:07.904Z,204.06
2023-05-14T01:49:08.036Z,204.33
2023-05-14T01:50:08.350Z,204.06
2023-05-14T01:51:08.148Z,204.88
2023-05-14T01:52:08.005Z,204.22
2023-05-14T01:53:08.035Z,202.78
2023-05-14T01:54:08.052Z,202.24
2023-05-14T01:55:09.302Z,200.51
2023-05-14T01:56:08.054Z,197.59
2023-05-14T01:57:08.081Z,201.62
2023-05-14T01:58:08.088Z,200.24
2023-05-14T01:59:08.107Z,198.79
2023-05-14T02:00:08.358Z,201.12
2023-05-14T02:01:08.186Z,200.76
2023-05-14T02:02:08.129Z,200.95
2023-05-14T02:03:08.243Z,201.85
2023-05-14T02:04:08.197Z,200.87
2023-05-14T02:05:08.359Z,200.05
2023-05-14T02:06:08.196Z,201.30
2023-05-14T02:07:08.189Z,198.02
2023-05-14T02:08:09.180Z,198.22
2023-05-14T02:09:08.186Z,199.03
2023-05-14T02:10:08.184Z,200.35
2023-05-14T02:11:08.188Z,200.60
2023-05-14T02:12:08.189Z,203.12
2023-05-14T02:13:08.200Z,205.73
2023-05-14T02:14:08.136Z,202.08
2023-05-14T02:15:08.375Z,201.05
2023-05-14T02:16:08.271Z,201.80
2023-05-14T02:17:08.852Z,202.81
2023-05-14T02:18:08.145Z,205.12
2023-05-14T02:19:08.211Z,205.99
2023-05-14T02:20:08.814Z,203.15
2023-05-14T02:21:08.402Z,203.37
2023-05-14T02:22:08.114Z,204.84
2023-05-14T02:23:08.082Z,202.24
2023-05-14T02:24:08.065Z,205.46
2023-05-14T02:25:08.082Z,201.03
2023-05-14T02:26:08.353Z,202.85
2023-05-14T02:27:08.081Z,202.79
2023-05-14T02:28:08.060Z,203.16
2023-05-14T02:29:08.089Z,203.37
2023-05-14T02:30:09.243Z,203.78
2023-05-14T02:31:08.113Z,202.70
2023-05-14T02:32:08.061Z,203.54
2023-05-14T02:33:08.116Z,205.47
2023-05-14T02:34:08.010Z,204.84
2023-05-14T02:35:10.853Z,200.64
2023-05-14T02:36:08.041Z,201.29
2023-05-14T02:37:07.981Z,201.27
2023-05-14T02:38:08.010Z,198.86
2023-05-14T02:39:07.978Z,195.89
2023-05-14T02:40:07.976Z,197.02
2023-05-14T02:41:08.407Z,196.19
2023-05-14T02:42:09.845Z,197.64
2023-05-14T02:43:08.001Z,199.03
2023-05-14T02:44:08.846Z,197.83
2023-05-14T02:45:07.969Z,198.94
2023-05-14T02:46:08.363Z,199.37
2023-05-14T02:47:07.977Z,197.04
2023-05-14T02:48:08.033Z,195.62
2023-05-14T02:49:07.939Z,193.19
2023-05-14T02:50:07.978Z,193.77
2023-05-14T02:51:07.919Z,194.38
2023-05-14T02:52:07.895Z,198.90
2023-05-14T02:53:07.890Z,196.73
2023-05-14T02:54:07.873Z,193.07
2023-05-14T02:55:07.893Z,191.40
2023-05-14T02:56:09.350Z,195.27
2023-05-14T02:57:07.858Z,194.20
2023-05-14T02:58:07.927Z,193.93
2023-05-14T02:59:07.904Z,195.23
2023-05-14T03:00:07.849Z,194.91
2023-05-14T03:01:07.965Z,194.21
2023-05-14T03:02:07.899Z,194.77
2023-05-14T03:03:07.887Z,197.63
2023-05-14T03:04:07.835Z,196.61
2023-05-14T03:05:07.823Z,196.47
2023-05-14T03:06:07.845Z,195.84
2023-05-14T03:07:07.877Z,194.99
2023-05-14T03:08:07.804Z,195.75
2023-05-14T03:09:07.830Z,196.28
2023-05-14T03:10:07.817Z,196.22
2023-05-14T03:11:07.874Z,197.39
2023-05-14T03:12:07.824Z,195.55
2023-05-14T03:13:07.865Z,196.89
2023-05-14T03:14:07.872Z,196.61
2023-05-14T03:15:07.916Z,197.02
2023-05-14T03:16:08.380Z,197.94
2023-05-14T03:17:08.014Z,195.49
2023-05-14T03:18:07.970Z,197.43
2023-05-14T03:19:08.098Z,197.90
2023-05-14T03:20:07.982Z,194.73
2023-05-14T03:21:07.987Z,196.99
2023-05-14T03:22:08.014Z,197.22
2023-05-14T03:23:08.062Z,197.24
2023-05-14T03:24:08.096Z,197.93
2023-05-14T03:25:08.053Z,198.55
2023-05-14T03:26:08.097Z,198.40
2023-05-14T03:27:08.068Z,197.70
2023-05-14T03:28:08.099Z,195.05
2023-05-14T03:29:08.108Z,198.64
2023-05-14T03:30:08.140Z,196.35
2023-05-14T03:31:08.410Z,198.98
2023-05-14T03:32:08.141Z,197.25
2023-05-14T03:33:08.148Z,194.64
2023-05-14T03:34:08.186Z,195.37
2023-05-14T03:35:08.202Z,196.89
2023-05-14T03:36:08.222Z,199.00
2023-05-14T03:37:08.268Z,197.96
2023-05-14T03:38:08.248Z,199.26
2023-05-14T03:39:08.274Z,198.12
2023-05-14T03:40:08.260Z,198.72
2023-05-14T03:41:08.387Z,194.84
2023-05-14T03:42:08.285Z,196.09
2023-05-14T03:43:08.313Z,196.74
2023-05-14T03:44:08.328Z,197.85
2023-05-14T03:45:08.308Z,196.58
2023-05-14T03:46:08.392Z,196.76
2023-05-14T03:47:08.344Z,196.11
2023-05-14T03:48:08.511Z,196.92
2023-05-14T03:49:08.404Z,198.55
2023-05-14T03:50:08.382Z,196.05
2023-05-14T03:51:08.858Z,198.63
2023-05-14T03:52:08.384Z,197.16
2023-05-14T03:53:08.422Z,195.97
2023-05-14T03:54:08.443Z,198.37
2023-05-14T03:55:08.451Z,200.08
2023-05-14T03:56:08.918Z,200.58
2023-05-14T03:57:08.505Z,201.87
2023-05-14T03:58:08.494Z,201.18
2023-05-14T03:59:08.478Z,201.93
2023-05-14T04:00:08.516Z,201.15
2023-05-14T04:01:08.528Z,198.89
2023-05-14T04:02:08.516Z,198.50
2023-05-14T04:03:08.660Z,197.69
2023-05-14T04:04:08.629Z,198.42
2023-05-14T04:05:08.566Z,200.00
2023-05-14T04:06:08.575Z,197.01
2023-05-14T04:07:08.625Z,198.86
2023-05-14T04:08:08.626Z,198.16
2023-05-14T04:09:08.632Z,198.46
2023-05-14T04:10:08.667Z,195.85
2023-05-14T04:11:08.659Z,197.55
2023-05-14T04:12:08.681Z,199.18
2023-05-14T04:13:08.685Z,201.37
2023-05-14T04:14:08.670Z,199.29
2023-05-14T04:15:08.764Z,196.51
2023-05-14T04:16:08.763Z,196.49
2023-05-14T04:17:08.763Z,196.53
2023-05-14T04:18:08.824Z,196.11
2023-05-14T04:19:08.842Z,194.86
2023-05-14T04:20:08.805Z,195.46
2023-05-14T04:21:08.857Z,195.63
2023-05-14T04:22:08.861Z,191.79
2023-05-14T04:23:08.873Z,194.28
2023-05-14T04:24:08.873Z,193.55
2023-05-14T04:25:08.915Z,193.20
2023-05-14T04:26:09.382Z,195.04
2023-05-14T04:27:08.920Z,193.78
2023-05-14T04:28:08.965Z,188.49
2023-05-14T04:29:08.972Z,193.25
2023-05-14T04:30:09.010Z,190.48
2023-05-14T04:31:09.002Z,189.07
2023-05-14T04:32:09.048Z,190.05
2023-05-14T04:33:09.092Z,194.14
2023-05-14T04:34:09.066Z,189.66
2023-05-14T04:35:09.080Z,186.77
2023-05-14T04:36:09.461Z,186.93
2023-05-14T04:37:09.094Z,184.72
2023-05-14T04:38:09.147Z,180.17
2023-05-14T04:39:09.159Z,183.32
2023-05-14T04:40:09.168Z,182.86
2023-05-14T04:41:09.206Z,185.25
2023-05-14T04:42:09.203Z,183.24
2023-05-14T04:43:09.211Z,184.51
2023-05-14T04:44:09.216Z,179.98
2023-05-14T04:45:09.251Z,180.38
2023-05-14T04:46:09.311Z,179.08
2023-05-14T04:47:09.261Z,178.97
2023-05-14T04:48:09.327Z,181.83
2023-05-14T04:49:09.265Z,178.62
2023-05-14T04:50:09.325Z,175.71
2023-05-14T04:51:09.341Z,177.58
2023-05-14T04:52:09.350Z,176.16
2023-05-14T04:53:09.391Z,177.05
2023-05-14T04:54:09.439Z,173.58
2023-05-14T04:55:09.392Z,173.92
2023-05-14T04:56:09.426Z,170.86
2023-05-14T04:57:09.415Z,171.14
2023-05-14T04:58:09.449Z,169.38
2023-05-14T04:59:09.458Z,169.23
2023-05-14T05:00:09.494Z,167.78
2023-05-14T05:01:09.552Z,171.18
2023-05-14T05:02:09.546Z,168.38
2023-05-14T05:03:09.584Z,170.32
2023-05-14T05:04:09.635Z,171.59
2023-05-14T05:05:09.596Z,175.25
2023-05-14T05:06:09.602Z,173.30
2023-05-14T05:07:09.611Z,171.80
2023-05-14T05:08:09.660Z,173.05
2023-05-14T05:09:09.639Z,174.58
2023-05-14T05:10:09.693Z,175.17
2023-05-14T05:11:09.738Z,174.39
2023-05-14T05:12:09.694Z,173.46
2023-05-14T05:13:09.758Z,171.73
2023-05-14T05:14:09.758Z,175.46
2023-05-14T05:15:09.790Z,173.80
2023-05-14T05:16:09.824Z,177.79
2023-05-14T05:17:09.909Z,178.92
2023-05-14T05:18:09.831Z,179.74
2023-05-14T05:19:09.894Z,179.36
2023-05-14T05:20:09.889Z,176.70
2023-05-14T05:21:09.915Z,178.08
2023-05-14T05:22:09.928Z,178.63
2023-05-14T05:23:09.969Z,182.58
2023-05-14T05:24:09.982Z,179.35
2023-05-14T05:25:10.002Z,178.45
2023-05-14T05:26:10.421Z,172.80
2023-05-14T05:27:10.033Z,178.24
2023-05-14T05:28:10.076Z,177.40
2023-05-14T05:29:10.069Z,178.67
2023-05-14T05:30:10.204Z,178.76
2023-05-14T05:31:10.201Z,181.74
2023-05-14T05:32:10.141Z,180.80
2023-05-14T05:33:10.259Z,178.17
2023-05-14T05:34:10.203Z,175.74
2023-05-14T05:35:10.239Z,178.87
2023-05-14T05:36:10.252Z,176.29
2023-05-14T05:37:10.272Z,174.09
2023-05-14T05:38:10.262Z,172.71
2023-05-14T05:39:10.336Z,172.61
2023-05-14T05:40:10.351Z,176.21
2023-05-14T05:41:10.350Z,173.14
2023-05-14T05:42:10.376Z,174.92
2023-05-14T05:43:10.375Z,173.38
2023-05-14T05:44:10.412Z,170.29
2023-05-14T05:45:10.457Z,172.66
2023-05-14T05:46:10.493Z,170.99
2023-05-14T05:47:10.496Z,175.37
2023-05-14T05:48:10.507Z,172.70
2023-05-14T05:49:10.547Z,174.39
2023-05-14T05:50:10.521Z,174.71
2023-05-14T05:51:10.554Z,177.52
2023-05-14T05:52:10.584Z,172.22
2023-05-14T05:53:10.609Z,177.32
2023-05-14T05:54:10.646Z,178.11
2023-05-14T05:55:10.639Z,178.33
2023-05-14T05:56:10.914Z,182.96
2023-05-14T05:57:10.672Z,180.38
2023-05-14T05:58:10.682Z,177.94
2023-05-14T05:59:10.710Z,183.19
2023-05-14T06:00:10.743Z,183.03
2023-05-14T06:01:10.775Z,183.22
2023-05-14T06:02:10.804Z,182.58
2023-05-14T06:03:10.867Z,186.12
2023-05-14T06:04:10.818Z,182.92
2023-05-14T06:05:10.923Z,182.45
2023-05-14T06:06:10.890Z,184.92
2023-05-14T06:07:10.885Z,186.10
2023-05-14T06:08:10.908Z,184.28
2023-05-14T06:09:10.960Z,183.59
2023-05-14T06:10:10.967Z,185.50
2023-05-14T06:11:10.993Z,181.70
2023-05-14T06:12:11.033Z,182.48
2023-05-14T06:13:11.025Z,181.15
2023-05-14T06:14:11.034Z,182.81
2023-05-14T06:15:11.068Z,183.35
2023-05-14T06:16:11.947Z,180.60
2023-05-14T06:17:11.459Z,179.41
2023-05-14T06:18:11.116Z,176.37
2023-05-14T06:19:11.305Z,177.30
2023-05-14T06:20:11.124Z,179.12
2023-05-14T06:21:11.405Z,174.78
2023-05-14T06:22:11.187Z,174.63
2023-05-14T06:23:11.163Z,170.12
2023-05-14T06:24:11.196Z,172.84
2023-05-14T06:25:11.216Z,171.10
2023-05-14T06:26:11.405Z,170.47
2023-05-14T06:27:11.217Z,166.06
2023-05-14T06:28:11.266Z,168.06
2023-05-14T06:29:11.282Z,169.82
2023-05-14T06:30:11.299Z,168.45
2023-05-14T06:31:11.433Z,168.70
2023-05-14T06:32:11.497Z,171.86
2023-05-14T06:33:11.385Z,172.41
2023-05-14T06:34:11.409Z,173.94
2023-05-14T06:35:11.394Z,173.76
2023-05-14T06:36:11.446Z,174.96
2023-05-14T06:37:11.449Z,174.32
2023-05-14T06:38:11.464Z,174.96
2023-05-14T06:39:11.490Z,175.12
2023-05-14T06:40:11.540Z,173.64
2023-05-14T06:41:11.598Z,172.54
2023-05-14T06:42:11.595Z,175.92
2023-05-14T06:43:11.542Z,173.70
2023-05-14T06:44:11.581Z,178.64
2023-05-14T06:45:11.614Z,177.18
2023-05-14T06:46:11.934Z,174.85
2023-05-14T06:47:11.670Z,174.60
2023-05-14T06:48:11.751Z,169.28
2023-05-14T06:49:11.725Z,169.84
2023-05-14T06:50:11.729Z,171.43
2023-05-14T06:51:11.713Z,171.71
2023-05-14T06:52:11.944Z,167.03
2023-05-14T06:53:11.772Z,174.17
2023-05-14T06:54:11.801Z,169.09
2023-05-14T06:55:11.834Z,169.87
2023-05-14T06:56:11.851Z,168.92
2023-05-14T06:57:11.928Z,166.31
2023-05-14T06:58:11.878Z,165.00
2023-05-14T06:59:11.865Z,165.35
2023-05-14T07:00:11.902Z,166.85
2023-05-14T07:01:11.934Z,165.44
2023-05-14T07:02:12.452Z,170.31
2023-05-14T07:03:11.943Z,167.21
2023-05-14T07:04:12.000Z,167.29
2023-05-14T07:05:11.990Z,165.85
2023-05-14T07:06:13.643Z,166.21
2023-05-14T07:07:12.028Z,166.64
2023-05-14T07:08:12.027Z,169.11
2023-05-14T07:09:12.094Z,166.86
2023-05-14T07:10:12.101Z,160.94
2023-05-14T07:11:12.106Z,159.38
2023-05-14T07:12:12.161Z,163.44
2023-05-14T07:13:12.158Z,163.37
2023-05-14T07:14:12.171Z,167.02
2023-05-14T07:15:12.230Z,166.81
2023-05-14T07:16:12.191Z,164.26
2023-05-14T07:17:12.302Z,165.65
2023-05-14T07:18:12.244Z,168.38
2023-05-14T07:19:12.304Z,164.32
2023-05-14T07:20:12.268Z,167.43
2023-05-14T07:21:12.318Z,160.31
2023-05-14T07:22:12.310Z,162.99
2023-05-14T07:23:12.334Z,162.91
2023-05-14T07:24:12.370Z,161.49
2023-05-14T07:25:12.373Z,163.94
2023-05-14T07:26:12.422Z,162.70
2023-05-14T07:27:12.442Z,161.70
2023-05-14T07:28:12.433Z,161.16
2023-05-14T07:29:12.441Z,161.50
2023-05-14T07:30:12.467Z,165.69
2023-05-14T07:31:12.524Z,164.02
2023-05-14T07:32:15.321Z,165.27
2023-05-14T07:33:12.493Z,160.53
2023-05-14T07:34:12.468Z,160.93
2023-05-14T07:35:12.481Z,165.97
2023-05-14T07:36:12.429Z,164.44
2023-05-14T07:37:12.934Z,163.54
2023-05-14T07:38:12.429Z,167.66
2023-05-14T07:39:12.446Z,168.49
2023-05-14T07:40:12.450Z,170.40
2023-05-14T07:41:12.404Z,164.90
2023-05-14T07:42:17.122Z,165.05
2023-05-14T07:43:13.408Z,165.35
2023-05-14T07:44:12.392Z,163.99
2023-05-14T07:45:12.385Z,163.65
2023-05-14T07:46:12.371Z,158.90
2023-05-14T07:47:12.416Z,159.20
2023-05-14T07:48:12.542Z,158.59
2023-05-14T07:49:12.357Z,156.15
2023-05-14T07:50:12.363Z,149.74
2023-05-14T07:51:12.389Z,151.15
2023-05-14T07:52:12.492Z,152.18
2023-05-14T07:53:12.363Z,154.17
2023-05-14T07:54:12.349Z,155.73
2023-05-14T07:55:12.330Z,157.98
2023-05-14T07:56:12.352Z,154.03
2023-05-14T07:57:12.330Z,153.10
2023-05-14T07:58:12.317Z,155.30
2023-05-14T07:59:12.321Z,150.38
2023-05-14T08:00:12.290Z,148.32
2023-05-14T08:01:12.287Z,151.55
2023-05-14T08:02:12.342Z,153.59
2023-05-14T08:03:12.400Z,149.40
2023-05-14T08:04:12.335Z,147.85
2023-05-14T08:05:12.319Z,144.11
2023-05-14T08:06:12.303Z,147.14
2023-05-14T08:07:12.363Z,147.95
2023-05-14T08:08:12.357Z,151.81
2023-05-14T08:09:12.359Z,144.87
2023-05-14T08:10:12.401Z,142.59
2023-05-14T08:11:12.502Z,141.66
2023-05-14T08:12:12.409Z,142.31
2023-05-14T08:13:12.436Z,139.84
2023-05-14T08:14:12.484Z,142.21
2023-05-14T08:15:12.487Z,141.81
2023-05-14T08:16:12.472Z,139.83
2023-05-14T08:17:12.642Z,136.98
2023-05-14T08:18:12.545Z,139.37
2023-05-14T08:19:12.689Z,140.58
2023-05-14T08:20:12.551Z,133.71
2023-05-14T08:21:12.615Z,142.02
2023-05-14T08:22:12.627Z,136.76
2023-05-14T08:23:12.628Z,136.80
2023-05-14T08:24:12.664Z,131.07
2023-05-14T08:25:12.664Z,130.47
2023-05-14T08:26:12.685Z,127.98
2023-05-14T08:27:12.968Z,131.53
2023-05-14T08:28:12.740Z,131.11
2023-05-14T08:29:14.070Z,137.00
2023-05-14T08:30:12.715Z,140.08
2023-05-14T08:31:12.755Z,138.61
2023-05-14T08:32:22.537Z,138.57
2023-05-14T08:33:13.753Z,138.99
2023-05-14T08:34:12.724Z,139.58
2023-05-14T08:35:12.717Z,138.71
2023-05-14T08:36:12.693Z,133.54
2023-05-14T08:37:12.663Z,136.08
2023-05-14T08:38:12.653Z,140.39
2023-05-14T08:39:12.666Z,134.24
2023-05-14T08:40:12.704Z,138.04
2023-05-14T08:41:12.680Z,137.09
2023-05-14T08:42:12.680Z,128.13
2023-05-14T08:43:12.648Z,129.60
2023-05-14T08:44:12.674Z,125.89
2023-05-14T08:45:12.709Z,127.57
2023-05-14T08:46:12.660Z,125.84
2023-05-14T08:47:13.010Z,121.59
2023-05-14T08:48:12.697Z,122.48
2023-05-14T08:49:12.671Z,122.14
2023-05-14T08:50:12.607Z,119.55
2023-05-14T08:51:12.600Z,111.17
2023-05-14T08:52:13.010Z,106.23
2023-05-14T08:53:12.577Z,104.52
2023-05-14T08:54:12.629Z,101.66
2023-05-14T08:55:12.563Z,104.62
2023-05-14T08:56:12.626Z,102.29
2023-05-14T08:57:12.618Z,98.53
2023-05-14T08:58:12.612Z,99.80
2023-05-14T08:59:12.639Z,97.67
2023-05-14T09:00:12.606Z,88.73
2023-05-14T09:01:12.690Z,84.04
2023-05-14T09:02:13.008Z,71.80
2023-05-14T09:03:12.669Z,80.76
2023-05-14T09:04:12.771Z,78.28
2023-05-14T09:05:12.682Z,82.17
2023-05-14T09:06:12.706Z,76.18
2023-05-14T09:07:12.708Z,70.49
2023-05-14T09:08:12.714Z,63.82
2023-05-14T09:09:12.711Z,62.47
2023-05-14T09:10:12.746Z,55.12
2023-05-14T09:11:12.751Z,67.67
2023-05-14T09:12:12.746Z,63.18
2023-05-14T09:13:12.771Z,57.74
2023-05-14T09:14:12.769Z,51.22
2023-05-14T09:15:12.810Z,54.42
2023-05-14T09:16:12.943Z,56.73
2023-05-14T09:17:12.810Z,60.15
2023-05-14T09:18:12.879Z,53.61
2023-05-14T09:19:12.937Z,43.80
2023-05-14T09:20:12.880Z,33.59
2023-05-14T09:21:12.895Z,44.98
2023-05-14T09:22:13.004Z,38.50
2023-05-14T09:23:12.895Z,40.19
2023-05-14T09:24:12.916Z,39.61
2023-05-14T09:25:12.930Z,39.68
2023-05-14T09:26:12.933Z,33.36
2023-05-14T09:27:12.956Z,28.49
2023-05-14T09:28:12.940Z,31.85
2023-05-14T09:29:12.952Z,26.55
2023-05-14T09:30:12.987Z,27.60
2023-05-14T09:31:12.990Z,42.69
2023-05-14T09:32:12.982Z,38.76
2023-05-14T09:33:13.012Z,37.83
2023-05-14T09:34:12.996Z,44.86
2023-05-14T09:35:13.040Z,41.83
2023-05-14T09:36:13.025Z,35.51
2023-05-14T09:37:13.083Z,39.27
2023-05-14T09:38:13.027Z,37.36
2023-05-14T09:39:13.094Z,37.39
2023-05-14T09:40:13.099Z,37.32
2023-05-14T09:41:13.090Z,36.35
2023-05-14T09:42:13.482Z,33.12
2023-05-14T09:43:13.112Z,36.83
2023-05-14T09:44:13.106Z,29.26
2023-05-14T09:45:13.191Z,33.67
2023-05-14T09:46:13.181Z,33.86
2023-05-14T09:47:13.212Z,48.31
2023-05-14T09:48:13.310Z,35.96
2023-05-14T09:49:13.185Z,30.16
2023-05-14T09:50:13.278Z,28.33
2023-05-14T09:51:13.221Z,32.33
2023-05-14T09:52:13.251Z,45.42
2023-05-14T09:53:13.220Z,30.39
2023-05-14T09:54:13.268Z,28.31
2023-05-14T09:55:13.269Z,45.11
2023-05-14T09:56:13.269Z,35.54
2023-05-14T09:57:13.287Z,37.64
2023-05-14T09:58:13.282Z,38.23
2023-05-14T09:59:13.302Z,39.98
2023-05-14T10:00:13.319Z,43.39
2023-05-14T10:01:13.329Z,31.09
2023-05-14T10:02:13.294Z,26.42
2023-05-14T10:03:13.421Z,34.57
2023-05-14T10:04:13.344Z,40.04
2023-05-14T10:05:13.469Z,37.80
2023-05-14T10:06:13.421Z,36.20
2023-05-14T10:07:13.501Z,29.65
2023-05-14T10:08:13.403Z,32.55
2023-05-14T10:09:13.391Z,33.89
2023-05-14T10:10:13.382Z,41.37
2023-05-14T10:11:13.450Z,44.96
2023-05-14T10:12:13.506Z,39.04
2023-05-14T10:13:13.432Z,41.72
2023-05-14T10:14:13.456Z,31.79
2023-05-14T10:15:13.462Z,34.40
2023-05-14T10:16:13.468Z,35.87
2023-05-14T10:17:14.093Z,31.75
2023-05-14T10:18:13.540Z,37.51
2023-05-14T10:19:13.526Z,46.95
2023-05-14T10:20:13.521Z,46.80
2023-05-14T10:21:13.549Z,50.25
2023-05-14T10:22:13.998Z,45.95
2023-05-14T10:23:13.561Z,36.35
2023-05-14T10:24:13.597Z,38.13
2023-05-14T10:25:13.612Z,50.40
2023-05-14T10:26:13.610Z,47.57
2023-05-14T10:27:13.664Z,31.75
2023-05-14T10:28:13.621Z,33.16
2023-05-14T10:29:13.626Z,38.97
2023-05-14T10:30:13.640Z,19.47
2023-05-14T10:31:13.742Z,42.45
2023-05-14T10:32:13.993Z,25.71
2023-05-14T10:33:13.873Z,39.38
2023-05-14T10:34:13.708Z,32.88
2023-05-14T10:35:13.705Z,34.01
2023-05-14T10:36:13.734Z,40.55
2023-05-14T10:37:13.740Z,33.96
2023-05-14T10:38:13.749Z,31.77
2023-05-14T10:39:13.739Z,26.33
2023-05-14T10:40:13.743Z,26.86
2023-05-14T10:41:13.780Z,25.89
2023-05-14T10:42:13.895Z,29.71
2023-05-14T10:43:13.809Z,42.64
2023-05-14T10:44:13.807Z,44.55
2023-05-14T10:45:13.822Z,47.04
2023-05-14T10:46:13.950Z,37.89
2023-05-14T10:47:13.844Z,28.63
2023-05-14T10:48:14.067Z,34.71
2023-05-14T10:49:13.861Z,43.38
2023-05-14T10:50:13.885Z,39.18
2023-05-14T10:51:13.905Z,32.24
2023-05-14T10:52:13.897Z,29.81
2023-05-14T10:53:14.022Z,25.93
2023-05-14T10:54:13.901Z,28.95
2023-05-14T10:55:13.964Z,38.00
2023-05-14T10:56:13.973Z,31.70
2023-05-14T10:57:13.975Z,34.79
2023-05-14T10:58:14.014Z,46.96
2023-05-14T10:59:14.026Z,48.30
2023-05-14T11:00:14.067Z,46.87
2023-05-14T11:01:14.028Z,35.07
2023-05-14T11:02:14.111Z,46.74
2023-05-14T11:03:14.080Z,37.81
2023-05-14T11:04:14.089Z,46.16
2023-05-14T11:05:14.344Z,31.41
2023-05-14T11:06:14.102Z,36.91
2023-05-14T11:07:14.076Z,45.58
2023-05-14T11:08:14.062Z,42.10
2023-05-14T11:09:14.097Z,45.53
2023-05-14T11:10:14.123Z,42.21
2023-05-14T11:11:14.132Z,32.40
2023-05-14T11:12:14.112Z,26.53
2023-05-14T11:13:14.137Z,38.40
2023-05-14T11:14:14.154Z,42.24
2023-05-14T11:15:14.202Z,45.05
2023-05-14T11:16:22.785Z,49.18
2023-05-14T11:17:15.327Z,47.38
2023-05-14T11:18:14.595Z,42.59
2023-05-14T11:19:14.262Z,48.06
2023-05-14T11:20:14.187Z,45.12
2023-05-14T11:21:14.167Z,53.28
2023-05-14T11:22:14.160Z,59.98
2023-05-14T11:23:14.142Z,59.08
2023-05-14T11:24:14.166Z,55.20
2023-05-14T11:25:14.172Z,62.24
2023-05-14T11:26:14.201Z,59.29
2023-05-14T11:27:14.128Z,55.04
2023-05-14T11:28:14.121Z,53.13
2023-05-14T11:29:14.127Z,57.34
2023-05-14T11:30:14.133Z,60.74
2023-05-14T11:31:14.170Z,54.86
2023-05-14T11:32:14.118Z,51.78
2023-05-14T11:33:14.123Z,58.44
2023-05-14T11:34:14.078Z,50.64
2023-05-14T11:35:14.137Z,45.31
2023-05-14T11:36:14.060Z,65.34
2023-05-14T11:37:14.057Z,62.24
2023-05-14T11:38:14.085Z,52.55
2023-05-14T11:39:14.099Z,51.56
2023-05-14T11:40:14.080Z,66.31
2023-05-14T11:41:14.113Z,59.52
2023-05-14T11:42:14.126Z,54.12
2023-05-14T11:43:14.200Z,59.71
2023-05-14T11:44:14.190Z,60.88
2023-05-14T11:45:14.246Z,57.43
2023-05-14T11:46:14.235Z,57.70
2023-05-14T11:47:14.239Z,54.21
2023-05-14T11:48:14.303Z,48.14
2023-05-14T11:49:14.287Z,54.47
2023-05-14T11:50:14.335Z,58.69
2023-05-14T11:51:14.358Z,52.90
2023-05-14T11:52:14.411Z,46.96
2023-05-14T11:53:14.396Z,50.32
2023-05-14T11:54:14.391Z,57.12
2023-05-14T11:55:14.477Z,41.31
2023-05-14T11:56:14.477Z,46.37
2023-05-14T11:57:14.483Z,51.25
2023-05-14T11:58:14.513Z,64.02
2023-05-14T11:59:14.530Z,71.25
2023-05-14T12:00:14.598Z,67.27
2023-05-14T12:01:14.582Z,77.62
2023-05-14T12:02:14.647Z,75.64
2023-05-14T12:03:15.147Z,65.75
2023-05-14T12:04:14.709Z,72.82
2023-05-14T12:05:14.747Z,69.37
2023-05-14T12:06:14.773Z,74.84
2023-05-14T12:07:14.805Z,73.03
2023-05-14T12:08:15.024Z,60.26
2023-05-14T12:09:14.894Z,58.67
2023-05-14T12:10:14.961Z,60.05
2023-05-14T12:11:14.906Z,65.87
2023-05-14T12:12:14.945Z,52.91
2023-05-14T12:13:14.979Z,61.05
2023-05-14T12:14:15.010Z,67.85
2023-05-14T12:15:15.041Z,74.31
2023-05-14T12:16:15.159Z,82.16
2023-05-14T12:17:15.043Z,86.19
2023-05-14T12:18:24.239Z,70.84
2023-05-14T12:19:16.102Z,70.93
2023-05-14T12:20:15.147Z,69.02
2023-05-14T12:21:15.052Z,68.86
2023-05-14T12:22:15.059Z,68.98
2023-05-14T12:23:15.114Z,81.81
2023-05-14T12:24:15.103Z,82.70
2023-05-14T12:25:15.167Z,93.80
2023-05-14T12:26:15.147Z,87.29
2023-05-14T12:27:15.197Z,94.94
2023-05-14T12:28:15.247Z,97.36
2023-05-14T12:29:15.271Z,105.00
2023-05-14T12:31:15.394Z,99.58
2023-05-14T12:32:15.274Z,96.38
2023-05-14T12:33:15.264Z,98.27
2023-05-14T12:34:15.244Z,109.19
2023-05-14T12:35:15.282Z,112.62
2023-05-14T12:37:16.223Z,97.86